Time;durP1;ratioP1;P1;durP2;ratioP2;P2;SDS_P1;SDS_P2;PMS_P1;PMS_P2;Temp;Humidity;BMP_temperature;BMP_pressure;BME280_temperature;BME280_humidity;BME280_pressure;Samples;Min_cycle;Max_cycle;Signal;HPM_P1;HPM_P2
2023/07/06 00:01:48;;;;;;;0.00;0.00;;;17.60;99.90;;;;;;7374195;19;20165;-68
2023/07/06 00:04:18;;;;;;;0.00;0.00;;;17.60;99.90;;;;;;7372604;19;20674;-69
2023/07/06 00:06:47;;;;;;;0.00;0.00;;;17.60;99.90;;;;;;7373049;19;20153;-68
2023/07/06 00:09:16;;;;;;;0.00;0.00;;;17.60;99.90;;;;;;7372310;19;20156;-68
2023/07/06 00:11:47;;;;;;;0.07;0.07;;;17.50;99.90;;;;;;7374592;19;20224;-68
2023/07/06 00:14:24;;;;;;;0.00;0.00;;;17.50;99.90;;;;;;7370945;19;20184;-67
2023/07/06 00:17:10;;;;;;;0.00;0.00;;;;;;;;;;7372711;19;20204;-67
2023/07/06 00:19:39;;;;;;;0.00;0.00;;;;;;;;;;7371691;19;20164;-68
2023/07/06 00:22:10;;;;;;;0.00;0.00;;;;;;;;;;7374446;19;20156;-68
2023/07/06 00:24:41;;;;;;;0.00;0.00;;;;;;;;;;7370290;19;20183;-68
2023/07/06 00:27:10;;;;;;;0.00;0.00;;;;;;;;;;7372131;19;20159;-69
2023/07/06 00:29:56;;;;;;;0.00;0.00;;;;;;;;;;7372831;19;20156;-68
2023/07/06 00:32:31;;;;;;;0.00;0.00;;;;;;;;;;7373645;19;20242;-68
2023/07/06 00:35:04;;;;;;;0.00;0.00;;;;;;;;;;7369588;19;20179;-69
2023/07/06 00:37:33;;;;;;;0.00;0.00;;;;;;;;;;7373419;19;20137;-68
2023/07/06 00:40:02;;;;;;;0.00;0.00;;;;;;;;;;7361931;19;20157;-69
2023/07/06 00:42:32;;;;;;;0.00;0.00;;;17.10;99.90;;;;;;7372863;19;20174;-68
2023/07/06 00:45:04;;;;;;;0.00;0.00;;;17.10;99.90;;;;;;7368011;19;20180;-68
2023/07/06 00:47:38;;;;;;;0.00;0.00;;;17.00;99.90;;;;;;7372758;19;20152;-68
2023/07/06 00:50:11;;;;;;;0.00;0.00;;;17.00;99.90;;;;;;7371397;19;20172;-69
2023/07/06 00:52:42;;;;;;;0.00;0.00;;;17.00;99.90;;;;;;7373174;19;20145;-69
2023/07/06 00:55:15;;;;;;;0.00;0.00;;;16.90;99.90;;;;;;7373211;19;20176;-69
2023/07/06 00:57:45;;;;;;;0.00;0.00;;;16.90;99.90;;;;;;7380275;19;20156;-69
2023/07/06 01:00:21;;;;;;;0.00;0.00;;;16.90;99.90;;;;;;7378437;19;20152;-69
2023/07/06 01:02:55;;;;;;;0.00;0.00;;;16.90;99.90;;;;;;7381828;19;20725;-68
2023/07/06 01:05:28;;;;;;;0.00;0.00;;;16.80;99.90;;;;;;7376681;19;21390;-69
2023/07/06 01:08:03;;;;;;;0.00;0.00;;;16.80;99.90;;;;;;7379344;19;20152;-70
2023/07/06 01:10:33;;;;;;;0.00;0.00;;;16.80;99.90;;;;;;7378706;19;20156;-69
2023/07/06 01:13:02;;;;;;;0.00;0.00;;;16.80;99.90;;;;;;7378324;19;20157;-69
2023/07/06 01:15:37;;;;;;;0.00;0.00;;;16.80;99.90;;;;;;7376526;19;20160;-69
2023/07/06 01:18:11;;;;;;;0.00;0.00;;;16.80;99.90;;;;;;7378866;19;20148;-68
2023/07/06 01:20:46;;;;;;;0.10;0.10;;;16.70;99.90;;;;;;7378610;19;20149;-70
2023/07/06 01:24:01;;;;;;;0.00;0.00;;;16.70;99.90;;;;;;7377702;19;20706;-68
2023/07/06 01:26:48;;;;;;;0.00;0.00;;;16.70;99.90;;;;;;7374508;19;20136;-70
2023/07/06 01:29:57;;;;;;;0.00;0.00;;;16.70;99.90;;;;;;7378503;19;20227;-69
2023/07/06 01:32:32;;;;;;;0.00;0.00;;;16.60;99.90;;;;;;7377051;19;20173;-70
2023/07/06 01:35:08;;;;;;;0.00;0.00;;;16.60;99.90;;;;;;7374715;19;20168;-69
2023/07/06 01:37:41;;;;;;;0.00;0.00;;;16.60;99.90;;;;;;7378921;19;20172;-69
2023/07/06 01:40:11;;;;;;;0.00;0.00;;;16.60;99.90;;;;;;7376805;19;20140;-68
2023/07/06 01:42:42;;;;;;;0.00;0.00;;;16.50;99.90;;;;;;7380243;19;20162;-68
2023/07/06 01:45:16;;;;;;;0.03;0.03;;;;;;;;;;7374079;19;20180;-70
2023/07/06 01:47:50;;;;;;;0.00;0.00;;;;;;;;;;7379118;19;20156;-68
2023/07/06 01:50:22;;;;;;;0.07;0.07;;;;;;;;;;7377082;19;20152;-70
2023/07/06 01:53:05;;;;;;;0.00;0.00;;;16.40;99.90;;;;;;7378420;19;20153;-69
2023/07/06 01:55:43;;;;;;;0.00;0.00;;;16.60;99.90;;;;;;7376367;19;20220;-69
2023/07/06 01:58:18;;;;;;;0.00;0.00;;;16.40;99.90;;;;;;7378379;19;20152;-68
2023/07/06 02:00:53;;;;;;;0.00;0.00;;;16.50;99.90;;;;;;7377877;19;20521;-69
2023/07/06 02:03:26;;;;;;;0.00;0.00;;;16.50;99.90;;;;;;7376770;19;20180;-69
2023/07/06 02:05:55;;;;;;;0.10;0.10;;;16.50;99.90;;;;;;7373617;19;20220;-69
2023/07/06 02:08:25;;;;;;;0.00;0.00;;;16.50;99.90;;;;;;7377406;19;20160;-69
2023/07/06 02:10:54;;;;;;;0.00;0.00;;;16.50;99.90;;;;;;7378420;19;20176;-69
2023/07/06 02:13:23;;;;;;;0.03;0.03;;;16.50;99.90;;;;;;7376514;19;20176;-70
2023/07/06 02:15:52;;;;;;;0.00;0.00;;;16.40;99.90;;;;;;7376541;19;20562;-69
2023/07/06 02:18:21;;;;;;;0.00;0.00;;;16.40;99.90;;;;;;7376702;19;20156;-69
2023/07/06 02:20:52;;;;;;;0.00;0.00;;;;;;;;;;7377130;19;20160;-70
2023/07/06 02:23:21;;;;;;;0.00;0.00;;;;;;;;;;7374434;19;20217;-69
2023/07/06 02:25:53;;;;;;;0.00;0.00;;;;;;;;;;7374679;19;20278;-69
2023/07/06 02:28:23;;;;;;;0.00;0.00;;;;;;;;;;7375808;19;20160;-69
2023/07/06 02:30:53;;;;;;;0.00;0.00;;;16.40;99.90;;;;;;7376903;19;20215;-68
2023/07/06 02:33:23;;;;;;;0.00;0.00;;;16.30;99.90;;;;;;7376250;19;20176;-69
2023/07/06 02:35:54;;;;;;;0.00;0.00;;;16.30;99.90;;;;;;7376364;19;20153;-67
2023/07/06 02:38:24;;;;;;;0.00;0.00;;;16.30;99.90;;;;;;7376218;19;20181;-69
2023/07/06 02:40:53;;;;;;;0.00;0.00;;;16.20;99.90;;;;;;7375372;19;20157;-69
2023/07/06 02:43:22;;;;;;;0.00;0.00;;;16.20;99.90;;;;;;7375119;19;20180;-68
2023/07/06 02:45:51;;;;;;;0.00;0.00;;;16.20;99.90;;;;;;7375370;19;20555;-68
2023/07/06 02:48:20;;;;;;;0.10;0.10;;;16.20;99.90;;;;;;7373582;19;20212;-69
2023/07/06 02:50:55;;;;;;;0.00;0.00;;;16.20;99.90;;;;;;7376333;19;20149;-68
2023/07/06 02:53:23;;;;;;;0.00;0.00;;;16.20;99.90;;;;;;7374603;19;20176;-69
2023/07/06 02:55:53;;;;;;;0.00;0.00;;;16.30;99.90;;;;;;7376262;19;20190;-69
2023/07/06 02:58:22;;;;;;;0.00;0.00;;;16.30;99.90;;;;;;7374030;19;20140;-68
2023/07/06 03:00:52;;;;;;;0.00;0.00;;;16.30;99.90;;;;;;7375639;19;20153;-67
2023/07/06 03:03:23;;;;;;;0.00;0.00;;;16.30;99.90;;;;;;7374316;19;20172;-68
2023/07/06 03:05:54;;;;;;;0.00;0.00;;;16.30;99.90;;;;;;7374680;19;20149;-67
2023/07/06 03:08:23;;;;;;;0.00;0.00;;;16.30;99.90;;;;;;7375230;19;20172;-68
2023/07/06 03:10:53;;;;;;;0.00;0.00;;;16.30;99.90;;;;;;7375417;19;20148;-68
2023/07/06 03:13:22;;;;;;;0.00;0.00;;;16.30;99.90;;;;;;7374261;19;20239;-68
2023/07/06 03:15:53;;;;;;;0.10;0.10;;;16.30;99.90;;;;;;7374313;19;20153;-68
2023/07/06 03:18:22;;;;;;;0.00;0.00;;;16.30;99.90;;;;;;7370975;19;20145;-69
2023/07/06 03:20:55;;;;;;;0.00;0.00;;;16.30;99.90;;;;;;7373765;19;20157;-70
2023/07/06 03:23:24;;;;;;;0.00;0.00;;;16.30;99.90;;;;;;7374098;19;20204;-69
2023/07/06 03:25:54;;;;;;;0.00;0.00;;;16.30;99.90;;;;;;7374043;19;20163;-68
2023/07/06 03:28:24;;;;;;;0.07;0.07;;;16.30;99.90;;;;;;7374473;19;20149;-68
2023/07/06 03:30:57;;;;;;;0.00;0.00;;;16.30;99.90;;;;;;7376005;19;20168;-68
2023/07/06 03:33:27;;;;;;;0.00;0.00;;;16.30;99.90;;;;;;7374466;19;20192;-69
2023/07/06 03:35:59;;;;;;;0.00;0.00;;;16.30;99.90;;;;;;7374388;19;20157;-70
2023/07/06 03:38:29;;;;;;;0.00;0.00;;;16.30;99.90;;;;;;7374597;19;20159;-67
2023/07/06 03:41:03;;;;;;;0.00;0.00;;;16.30;99.90;;;;;;7375819;19;20149;-69
2023/07/06 03:43:32;;;;;;;0.10;0.10;;;;;;;;;;7373665;19;20174;-68
2023/07/06 03:46:03;;;;;;;0.00;0.00;;;;;;;;;;7373515;19;20156;-68
2023/07/06 03:48:32;;;;;;;0.10;0.10;;;;;;;;;;7373670;19;20183;-68
2023/07/06 03:51:07;;;;;;;0.00;0.00;;;16.20;99.90;;;;;;7374981;19;20157;-70
2023/07/06 03:53:36;;;;;;;0.00;0.00;;;16.20;99.90;;;;;;7373307;19;20199;-67
2023/07/06 03:56:05;;;;;;;0.00;0.00;;;16.20;99.90;;;;;;7373260;19;20240;-67
2023/07/06 03:58:38;;;;;;;0.03;0.03;;;16.20;99.90;;;;;;7373237;19;20530;-67
2023/07/06 04:01:07;;;;;;;0.00;0.00;;;16.20;99.90;;;;;;7373704;19;20228;-68
2023/07/06 04:03:36;;;;;;;0.00;0.00;;;16.10;99.90;;;;;;7373627;19;20187;-68
2023/07/06 04:06:08;;;;;;;0.00;0.00;;;16.10;99.90;;;;;;7371912;19;20160;-68
2023/07/06 04:08:37;;;;;;;0.00;0.00;;;16.20;99.90;;;;;;7372940;19;20216;-69
2023/07/06 04:11:08;;;;;;;0.00;0.00;;;16.20;99.90;;;;;;7372505;19;20156;-69
2023/07/06 04:13:37;;;;;;;0.00;0.00;;;16.40;99.90;;;;;;7374311;19;20187;-68
2023/07/06 04:16:07;;;;;;;0.00;0.00;;;16.50;99.90;;;;;;7372260;19;20153;-69
2023/07/06 04:18:36;;;;;;;0.00;0.00;;;16.60;99.90;;;;;;7372252;19;20153;-68
2023/07/06 04:21:07;;;;;;;0.00;0.00;;;16.80;99.90;;;;;;7373217;19;20152;-73
2023/07/06 04:23:36;;;;;;;0.00;0.00;;;16.90;99.90;;;;;;7372649;19;20192;-73
2023/07/06 04:26:05;;;;;;;0.00;0.00;;;16.90;99.90;;;;;;7371690;19;20156;-73
2023/07/06 04:28:33;;;;;;;0.00;0.00;;;16.90;99.90;;;;;;7372339;19;20162;-72
2023/07/06 04:31:02;;;;;;;0.00;0.00;;;17.00;99.90;;;;;;7380381;19;20148;-73
2023/07/06 04:33:31;;;;;;;0.00;0.00;;;17.10;99.90;;;;;;7380061;19;20206;-72
2023/07/06 04:36:02;;;;;;;0.00;0.00;;;17.20;99.90;;;;;;7378897;19;20216;-73
2023/07/06 04:38:34;;;;;;;0.00;0.00;;;17.40;99.90;;;;;;7379529;19;20160;-72
2023/07/06 04:41:03;;;;;;;0.00;0.00;;;17.50;99.90;;;;;;7380859;19;20152;-72
2023/07/06 04:43:32;;;;;;;0.00;0.00;;;17.60;99.90;;;;;;7379632;19;20176;-72
2023/07/06 04:46:00;;;;;;;0.00;0.00;;;17.70;99.90;;;;;;7379728;19;20157;-73
2023/07/06 04:48:29;;;;;;;0.00;0.00;;;17.80;99.90;;;;;;7378616;19;20157;-72
2023/07/06 04:50:59;;;;;;;0.00;0.00;;;17.90;99.90;;;;;;7381876;19;20160;-72
2023/07/06 04:53:28;;;;;;;0.00;0.00;;;18.00;99.90;;;;;;7378776;19;20243;-73
2023/07/06 04:56:00;;;;;;;0.00;0.00;;;18.10;99.90;;;;;;7379875;19;20153;-72
2023/07/06 04:58:28;;;;;;;0.00;0.00;;;18.30;99.90;;;;;;7378395;19;20141;-72
2023/07/06 05:00:57;;;;;;;0.00;0.00;;;18.40;99.90;;;;;;7380813;19;20141;-73
2023/07/06 05:03:30;;;;;;;0.00;0.00;;;18.40;99.90;;;;;;7379388;19;20187;-72
2023/07/06 05:06:03;;;;;;;0.00;0.00;;;18.50;99.90;;;;;;7379641;19;20157;-73
2023/07/06 05:08:32;;;;;;;0.00;0.00;;;18.60;99.90;;;;;;7379991;19;20252;-69
2023/07/06 05:11:05;;;;;;;0.00;0.00;;;18.60;99.90;;;;;;7378892;19;20624;-68
2023/07/06 05:13:34;;;;;;;0.00;0.00;;;18.60;99.90;;;;;;7379573;19;20184;-68
2023/07/06 05:16:03;;;;;;;0.00;0.00;;;18.70;99.90;;;;;;7378946;19;20155;-69
2023/07/06 05:18:32;;;;;;;0.00;0.00;;;18.90;99.90;;;;;;7378211;19;20153;-69
2023/07/06 05:21:02;;;;;;;0.00;0.00;;;19.00;99.90;;;;;;7379560;19;20153;-69
2023/07/06 05:23:31;;;;;;;0.00;0.00;;;19.10;99.90;;;;;;7377658;19;20259;-69
2023/07/06 05:26:03;;;;;;;0.00;0.00;;;19.20;99.90;;;;;;7377799;19;20149;-70
2023/07/06 05:28:32;;;;;;;0.00;0.00;;;19.40;99.90;;;;;;7378247;19;20619;-69
2023/07/06 05:31:02;;;;;;;0.00;0.00;;;19.50;99.90;;;;;;7380084;19;20156;-68
2023/07/06 05:33:32;;;;;;;0.00;0.00;;;19.70;99.90;;;;;;7376550;19;20184;-68
2023/07/06 05:36:01;;;;;;;0.00;0.00;;;19.90;99.90;;;;;;7378240;19;20157;-69
2023/07/06 05:38:30;;;;;;;0.00;0.00;;;;;;;;;;7376307;19;20164;-70
2023/07/06 05:41:06;;;;;;;0.00;0.00;;;20.00;99.90;;;;;;7376102;19;20577;-69
2023/07/06 05:43:35;;;;;;;0.00;0.00;;;20.20;99.90;;;;;;7377678;19;20176;-68
2023/07/06 05:46:04;;;;;;;0.00;0.00;;;20.40;99.90;;;;;;7378329;19;20152;-69
2023/07/06 05:48:33;;;;;;;0.00;0.00;;;20.50;99.90;;;;;;7376906;19;20178;-68
2023/07/06 05:51:02;;;;;;;0.00;0.00;;;20.70;99.90;;;;;;7379481;19;20148;-69
2023/07/06 05:53:30;;;;;;;0.00;0.00;;;20.80;99.90;;;;;;7378725;19;20172;-70
2023/07/06 05:55:59;;;;;;;0.00;0.00;;;20.90;99.90;;;;;;7377670;19;20153;-68
2023/07/06 05:58:31;;;;;;;0.00;0.00;;;21.10;99.90;;;;;;7377902;19;20144;-69
2023/07/06 06:01:00;;;;;;;0.00;0.00;;;21.10;99.90;;;;;;7379603;19;20145;-68
2023/07/06 06:03:30;;;;;;;0.00;0.00;;;21.30;99.90;;;;;;7376033;19;20204;-69
2023/07/06 06:06:00;;;;;;;0.00;0.00;;;;;;;;;;7378657;19;20181;-69
2023/07/06 06:08:29;;;;;;;0.00;0.00;;;21.30;99.90;;;;;;7374018;19;20148;-68
2023/07/06 06:11:00;;;;;;;0.00;0.00;;;21.70;99.90;;;;;;7379012;19;20164;-68
2023/07/06 06:13:31;;;;;;;0.00;0.00;;;21.80;99.90;;;;;;7376192;19;20193;-69
2023/07/06 06:16:00;;;;;;;0.00;0.00;;;21.90;99.90;;;;;;7377201;19;20149;-69
2023/07/06 06:18:29;;;;;;;0.00;0.00;;;21.90;99.90;;;;;;7376171;19;20153;-69
2023/07/06 06:20:59;;;;;;;0.00;0.00;;;21.90;99.90;;;;;;7377651;19;20647;-69
2023/07/06 06:23:28;;;;;;;0.00;0.00;;;22.00;99.90;;;;;;7376187;19;20191;-69
2023/07/06 06:25:57;;;;;;;0.00;0.00;;;21.90;99.90;;;;;;7377051;19;20164;-68
2023/07/06 06:28:25;;;;;;;0.00;0.00;;;21.90;99.90;;;;;;7374729;19;20148;-68
2023/07/06 06:30:58;;;;;;;0.00;0.00;;;22.00;99.90;;;;;;7377781;19;20161;-69
2023/07/06 06:33:26;;;;;;;0.00;0.00;;;22.10;99.90;;;;;;7375838;19;20177;-69
2023/07/06 06:35:58;;;;;;;0.00;0.00;;;22.20;99.90;;;;;;7377342;19;20152;-68
2023/07/06 06:38:27;;;;;;;0.00;0.00;;;22.30;99.90;;;;;;7376796;19;20152;-66
2023/07/06 06:40:59;;;;;;;0.00;0.00;;;22.40;99.90;;;;;;7376413;19;20184;-68
2023/07/06 06:43:28;;;;;;;0.00;0.00;;;22.60;99.90;;;;;;7376246;19;20176;-68
2023/07/06 06:46:00;;;;;;;0.00;0.00;;;22.70;99.90;;;;;;7376357;19;20184;-69
2023/07/06 06:48:29;;;;;;;0.00;0.00;;;22.80;99.90;;;;;;7373436;19;20160;-67
2023/07/06 06:50:58;;;;;;;0.00;0.00;;;22.90;99.90;;;;;;7378412;19;20137;-69
2023/07/06 06:53:27;;;;;;;0.00;0.00;;;23.10;99.90;;;;;;7375322;19;20185;-68
2023/07/06 06:55:57;;;;;;;0.00;0.00;;;23.20;99.90;;;;;;7376856;19;20149;-69
2023/07/06 06:58:26;;;;;;;0.00;0.00;;;23.30;99.90;;;;;;7376071;19;20266;-68
2023/07/06 07:01:03;;;;;;;0.00;0.00;;;23.30;99.90;;;;;;7377675;19;20149;-69
2023/07/06 07:03:32;;;;;;;0.00;0.00;;;23.30;99.90;;;;;;7375369;19;20179;-69
2023/07/06 07:06:03;;;;;;;0.00;0.00;;;23.40;99.90;;;;;;7375318;19;20156;-69
2023/07/06 07:08:32;;;;;;;0.00;0.00;;;23.50;99.90;;;;;;7372683;19;20177;-68
2023/07/06 07:11:02;;;;;;;0.00;0.00;;;23.70;99.90;;;;;;7376539;19;20157;-68
2023/07/06 07:13:31;;;;;;;0.00;0.00;;;23.80;99.90;;;;;;7374400;19;20200;-69
2023/07/06 07:16:02;;;;;;;0.00;0.00;;;23.90;99.90;;;;;;7374864;19;20535;-69
2023/07/06 07:18:31;;;;;;;0.00;0.00;;;24.00;99.90;;;;;;7374051;19;20216;-68
2023/07/06 07:21:01;;;;;;;0.00;0.00;;;24.10;99.90;;;;;;7376059;19;20148;-68
2023/07/06 07:23:40;;;;;;;0.00;0.00;;;24.10;99.90;;;;;;7375266;19;20188;-68
2023/07/06 07:26:09;;;;;;;0.00;0.00;;;24.20;99.90;;;;;;7374368;19;20155;-69
2023/07/06 07:28:39;;;;;;;0.00;0.00;;;24.40;99.90;;;;;;7372681;19;20141;-68
2023/07/06 07:31:11;;;;;;;0.00;0.00;;;24.50;99.90;;;;;;7375461;19;20220;-69
2023/07/06 07:33:41;;;;;;;0.00;0.00;;;24.70;99.90;;;;;;7372802;19;20547;-69
2023/07/06 07:36:12;;;;;;;0.00;0.00;;;24.80;99.90;;;;;;7375042;19;20155;-69
2023/07/06 07:38:42;;;;;;;0.00;0.00;;;24.90;99.90;;;;;;7373122;19;20204;-68
2023/07/06 07:41:13;;;;;;;0.00;0.00;;;25.00;99.90;;;;;;7374841;19;20155;-68
2023/07/06 07:43:46;;;;;;;0.00;0.00;;;25.10;99.90;;;;;;7373003;19;20172;-68
2023/07/06 07:46:20;;;;;;;0.00;0.00;;;25.30;99.90;;;;;;7373351;19;20161;-68
2023/07/06 07:48:53;;;;;;;0.00;0.00;;;25.20;99.90;;;;;;7372859;19;20545;-69
2023/07/06 07:51:26;;;;;;;0.00;0.00;;;25.20;99.90;;;;;;7374600;19;20155;-67
2023/07/06 07:53:56;;;;;;;0.00;0.00;;;25.20;99.90;;;;;;7375367;19;20180;-68
2023/07/06 07:56:27;;;;;;;0.00;0.00;;;25.30;99.90;;;;;;7372868;19;20157;-68
2023/07/06 07:58:56;;;;;;;0.00;0.00;;;25.40;99.90;;;;;;7375142;19;20220;-68
2023/07/06 08:01:28;;;;;;;0.00;0.00;;;25.50;99.90;;;;;;7374077;19;20141;-69
2023/07/06 08:03:57;;;;;;;0.00;0.00;;;25.60;99.90;;;;;;7372951;19;20191;-69
2023/07/06 08:06:26;;;;;;;0.00;0.00;;;;;;;;;;7372218;19;20179;-69
2023/07/06 08:08:55;;;;;;;0.00;0.00;;;25.70;99.90;;;;;;7372907;19;20160;-68
2023/07/06 08:11:26;;;;;;;0.00;0.00;;;26.00;99.90;;;;;;7374134;19;20160;-69
2023/07/06 08:13:56;;;;;;;0.00;0.00;;;26.10;99.90;;;;;;7374893;19;20191;-69
2023/07/06 08:16:28;;;;;;;0.00;0.00;;;26.10;99.90;;;;;;7372553;19;20198;-69
2023/07/06 08:18:57;;;;;;;0.00;0.00;;;26.20;99.90;;;;;;7374100;19;20167;-67
2023/07/06 08:21:26;;;;;;;0.00;0.00;;;26.30;99.90;;;;;;7374164;19;20279;-70
2023/07/06 08:23:57;;;;;;;0.00;0.00;;;26.40;99.90;;;;;;7373443;19;20263;-69
2023/07/06 08:26:28;;;;;;;0.00;0.00;;;26.20;99.90;;;;;;7372146;19;20145;-69
2023/07/06 08:28:57;;;;;;;0.00;0.00;;;26.20;99.90;;;;;;7371850;19;20144;-68
2023/07/06 08:31:29;;;;;;;0.00;0.00;;;26.00;99.90;;;;;;7372349;19;20148;-70
2023/07/06 08:34:00;;;;;;;0.00;0.00;;;26.00;99.90;;;;;;7374329;19;20190;-69
2023/07/06 08:36:29;;;;;;;0.00;0.00;;;25.90;99.90;;;;;;7371526;19;20177;-68
2023/07/06 08:39:00;;;;;;;0.00;0.00;;;25.70;99.90;;;;;;7373235;19;20156;-68
2023/07/06 08:41:37;;;;;;;0.00;0.00;;;25.50;99.90;;;;;;7372639;19;20541;-71
2023/07/06 08:44:08;;;;;;;0.00;0.00;;;25.50;99.90;;;;;;7372935;19;20182;-69
2023/07/06 08:46:41;;;;;;;0.00;0.00;;;25.60;99.90;;;;;;7371889;19;20164;-70
2023/07/06 08:49:21;;;;;;;0.00;0.00;;;25.70;99.90;;;;;;7370749;19;20153;-70
2023/07/06 08:51:51;;;;;;;0.00;0.00;;;25.80;99.90;;;;;;7372446;19;20156;-69
2023/07/06 08:54:23;;;;;;;0.00;0.00;;;26.00;99.90;;;;;;7372546;19;20188;-68
2023/07/06 08:56:53;;;;;;;0.00;0.00;;;26.10;99.90;;;;;;7372561;19;20145;-70
2023/07/06 08:59:34;;;;;;;0.00;0.00;;;26.30;99.90;;;;;;7371628;19;20236;-70
2023/07/06 09:02:11;;;;;;;0.00;0.00;;;26.40;99.90;;;;;;7372570;19;20141;-68
2023/07/06 09:04:41;;;;;;;0.00;0.00;;;26.50;99.90;;;;;;7368676;19;20243;-69
2023/07/06 09:07:13;;;;;;;0.00;0.00;;;26.60;99.90;;;;;;7373152;19;20202;-70
2023/07/06 09:09:43;;;;;;;0.00;0.00;;;26.60;99.90;;;;;;7370987;19;20148;-69
2023/07/06 09:12:20;;;;;;;0.00;0.00;;;26.60;99.90;;;;;;7372247;19;20152;-69
2023/07/06 09:14:53;;;;;;;0.00;0.00;;;26.60;99.90;;;;;;7371370;19;20188;-68
2023/07/06 09:17:25;;;;;;;0.00;0.00;;;26.70;99.90;;;;;;7379739;19;20184;-69
2023/07/06 09:19:54;;;;;;;0.00;0.00;;;26.80;99.90;;;;;;7378557;19;20145;-70
2023/07/06 09:22:23;;;;;;;0.00;0.00;;;26.80;99.90;;;;;;7379620;19;20156;-69
2023/07/06 09:24:53;;;;;;;0.00;0.00;;;26.80;99.90;;;;;;7375687;19;20180;-70
2023/07/06 09:27:26;;;;;;;0.00;0.00;;;27.00;99.90;;;;;;7378674;19;20156;-68
2023/07/06 09:30:00;;;;;;;0.00;0.00;;;26.90;99.90;;;;;;7378903;19;20152;-69
2023/07/06 09:32:32;;;;;;;0.00;0.00;;;26.80;99.90;;;;;;7378499;19;20153;-70
2023/07/06 09:35:08;;;;;;;0.00;0.00;;;26.80;99.90;;;;;;7375913;19;20172;-69
2023/07/06 09:37:46;;;;;;;0.00;0.00;;;26.80;99.90;;;;;;7378251;19;20156;-70
2023/07/06 09:40:16;;;;;;;0.00;0.00;;;26.80;99.90;;;;;;7378878;19;20154;-70
2023/07/06 09:42:46;;;;;;;0.00;0.00;;;26.90;99.90;;;;;;7378638;19;20216;-70
2023/07/06 09:45:24;;;;;;;0.00;0.00;;;27.00;99.90;;;;;;7373768;19;20181;-68
2023/07/06 09:47:59;;;;;;;0.00;0.00;;;26.90;99.90;;;;;;7378084;19;20152;-70
2023/07/06 09:50:35;;;;;;;0.00;0.00;;;27.00;99.90;;;;;;7377953;19;20185;-69
2023/07/06 09:53:08;;;;;;;0.00;0.00;;;27.00;99.90;;;;;;7378491;19;20149;-70
2023/07/06 09:55:37;;;;;;;0.00;0.00;;;27.10;99.90;;;;;;7377105;19;20149;-69
2023/07/06 09:58:10;;;;;;;0.00;0.00;;;27.10;99.90;;;;;;7377655;19;20156;-70
2023/07/06 10:00:44;;;;;;;0.00;0.00;;;27.20;99.90;;;;;;7377488;19;20180;-69
2023/07/06 10:03:25;;;;;;;0.00;0.00;;;27.10;99.90;;;;;;7376598;19;20152;-70
2023/07/06 10:06:00;;;;;;;0.00;0.00;;;27.00;99.90;;;;;;7376513;19;20145;-71
2023/07/06 10:08:35;;;;;;;0.00;0.00;;;27.00;99.90;;;;;;7375034;19;20156;-69
2023/07/06 10:11:12;;;;;;;0.00;0.00;;;27.10;99.90;;;;;;7375675;19;20180;-69
2023/07/06 10:13:45;;;;;;;0.00;0.00;;;;;;;;;;7373531;19;20263;-70
2023/07/06 10:16:21;;;;;;;0.00;0.00;;;;;;;;;;7373718;19;20171;-69
2023/07/06 10:18:54;;;;;;;0.00;0.00;;;;;;;;;;7374611;19;20152;-69
2023/07/06 10:21:25;;;;;;;0.00;0.00;;;;;;;;;;7375783;19;20157;-69
2023/07/06 10:23:57;;;;;;;0.00;0.00;;;;;;;;;;7376776;19;20172;-69
2023/07/06 10:26:29;;;;;;;0.00;0.00;;;;;;;;;;7372009;19;20216;-69
2023/07/06 10:29:00;;;;;;;0.00;0.00;;;;;;;;;;7390560;19;20145;-70
2023/07/06 10:31:32;;;;;;;0.00;0.00;;;;;;;;;;7378709;19;20180;-69
2023/07/06 10:34:07;;;;;;;0.00;0.00;;;;;;;;;;7377535;19;20180;-69
2023/07/06 10:36:36;;;;;;;0.00;0.00;;;;;;;;;;7375539;19;20152;-69
2023/07/06 10:39:14;;;;;;;0.00;0.00;;;;;;;;;;7376155;19;20157;-69
2023/07/06 10:41:49;;;;;;;0.00;0.00;;;;;;;;;;7370667;19;20152;-69
2023/07/06 10:44:33;;;;;;;0.00;0.00;;;;;;;;;;7371644;19;20176;-69
2023/07/06 10:47:02;;;;;;;0.00;0.00;;;;;;;;;;7376077;19;20177;-69
2023/07/06 10:49:34;;;;;;;0.00;0.00;;;;;;;;;;7373069;19;20157;-68
2023/07/06 10:52:03;;;;;;;0.00;0.00;;;;;;;;;;7374451;19;20224;-70
2023/07/06 10:54:34;;;;;;;0.00;0.00;;;;;;;;;;7372771;19;20184;-69
2023/07/06 10:57:10;;;;;;;0.00;0.00;;;;;;;;;;7375941;19;20167;-70
2023/07/06 10:59:40;;;;;;;0.00;0.00;;;;;;;;;;7373717;19;20184;-69
2023/07/06 11:02:17;;;;;;;0.00;0.00;;;;;;;;;;7377438;19;20159;-69
2023/07/06 11:05:01;;;;;;;0.00;0.00;;;;;;;;;;7371953;19;20180;-69
2023/07/06 11:07:45;;;;;;;0.00;0.00;;;;;;;;;;7375668;19;20234;-68
2023/07/06 11:10:31;;;;;;;0.00;0.00;;;;;;;;;;7373658;19;20152;-69
2023/07/06 11:13:01;;;;;;;0.00;0.00;;;;;;;;;;7376550;19;20189;-68
2023/07/06 11:15:34;;;;;;;0.00;0.00;;;;;;;;;;7374436;19;20162;-69
2023/07/06 11:18:07;;;;;;;0.00;0.00;;;;;;;;;;7375101;19;20149;-69
2023/07/06 11:20:42;;;;;;;0.00;0.00;;;;;;;;;;7374551;19;20502;-69
2023/07/06 11:23:16;;;;;;;0.00;0.00;;;;;;;;;;7375362;19;20148;-68
2023/07/06 11:25:45;;;;;;;0.00;0.00;;;;;;;;;;7373649;19;20157;-69
2023/07/06 11:28:16;;;;;;;0.00;0.00;;;;;;;;;;7375666;19;20148;-69
2023/07/06 11:30:50;;;;;;;0.00;0.00;;;;;;;;;;7374311;19;20212;-69
2023/07/06 11:33:24;;;;;;;0.00;0.00;;;;;;;;;;7375245;19;20172;-68
2023/07/06 11:35:58;;;;;;;0.00;0.00;;;;;;;;;;7373669;19;20264;-70
2023/07/06 11:38:34;;;;;;;0.00;0.00;;;;;;;;;;7372825;19;20153;-70
2023/07/06 11:41:14;;;;;;;0.00;0.00;;;;;;;;;;7374651;19;20152;-69
2023/07/06 11:43:52;;;;;;;0.00;0.00;;;;;;;;;;7374014;19;20601;-70
2023/07/06 11:46:36;;;;;;;0.00;0.00;;;27.60;99.90;;;;;;7374205;19;20155;-69
2023/07/06 11:49:20;;;;;;;0.00;0.00;;;27.30;99.90;;;;;;7372531;19;20243;-69
2023/07/06 11:51:51;;;;;;;0.00;0.00;;;27.10;99.90;;;;;;7374138;19;20164;-70
2023/07/06 11:54:40;;;;;;;0.00;0.00;;;;;;;;;;7373223;19;20184;-69
2023/07/06 11:57:24;;;;;;;0.00;0.00;;;;;;;;;;7376143;19;20149;-69
2023/07/06 12:00:11;;;;;;;0.00;0.00;;;26.80;99.90;;;;;;7372666;19;20221;-71
2023/07/06 12:02:58;;;;;;;0.00;0.00;;;26.80;99.90;;;;;;7376369;19;20163;-69
2023/07/06 12:05:30;;;;;;;0.00;0.00;;;26.80;99.90;;;;;;7373943;19;20149;-69
2023/07/06 12:08:03;;;;;;;0.00;0.00;;;26.80;99.90;;;;;;7374478;19;20161;-70
2023/07/06 12:10:37;;;;;;;0.00;0.00;;;26.90;99.90;;;;;;7372925;19;20169;-69
2023/07/06 12:13:21;;;;;;;0.00;0.00;;;26.80;99.90;;;;;;7373743;19;20286;-70
2023/07/06 12:15:51;;;;;;;0.00;0.00;;;26.80;99.90;;;;;;7369511;19;20173;-69
2023/07/06 12:18:21;;;;;;;0.00;0.00;;;26.80;99.90;;;;;;7373022;19;20164;-68
2023/07/06 12:20:54;;;;;;;0.00;0.00;;;26.80;99.90;;;;;;7371616;19;20612;-70
2023/07/06 12:23:25;;;;;;;0.00;0.00;;;27.00;99.90;;;;;;7373214;19;20180;-68
2023/07/06 12:25:59;;;;;;;0.00;0.00;;;26.90;99.90;;;;;;7373810;19;20156;-70
2023/07/06 12:28:30;;;;;;;0.00;0.00;;;27.00;99.90;;;;;;7372613;19;20160;-68
2023/07/06 12:31:03;;;;;;;0.00;0.00;;;26.90;99.90;;;;;;7374351;19;20176;-70
2023/07/06 12:33:32;;;;;;;0.00;0.00;;;26.80;99.90;;;;;;7373641;19;20180;-69
2023/07/06 12:36:02;;;;;;;0.00;0.00;;;26.80;99.90;;;;;;7362696;19;20523;-70
2023/07/06 12:38:32;;;;;;;0.00;0.00;;;26.80;99.90;;;;;;7368880;19;20160;-69
2023/07/06 12:41:18;;;;;;;0.00;0.00;;;;;;;;;;7372609;19;20149;-70
2023/07/06 12:43:49;;;;;;;0.00;0.00;;;26.90;99.90;;;;;;7370099;19;20180;-69
2023/07/06 12:46:21;;;;;;;0.00;0.00;;;;;;;;;;7372334;19;20164;-67
2023/07/06 12:48:54;;;;;;;0.00;0.00;;;26.70;99.90;;;;;;7368678;19;20178;-68
2023/07/06 12:51:25;;;;;;;0.00;0.00;;;26.70;99.90;;;;;;7376551;19;20160;-68
2023/07/06 12:53:57;;;;;;;0.00;0.00;;;26.60;99.90;;;;;;7378136;19;20176;-69
2023/07/06 12:56:31;;;;;;;0.00;0.00;;;26.40;99.90;;;;;;7375882;19;20183;-69
2023/07/06 12:59:02;;;;;;;0.00;0.00;;;26.20;99.90;;;;;;7374912;19;20168;-69
2023/07/06 13:01:34;;;;;;;0.00;0.00;;;26.10;99.90;;;;;;7378933;19;20490;-69
2023/07/06 13:04:07;;;;;;;0.00;0.00;;;26.00;99.90;;;;;;7379416;19;20180;-69
2023/07/06 13:06:44;;;;;;;0.00;0.00;;;25.90;99.90;;;;;;7377368;19;20212;-70
2023/07/06 13:09:19;;;;;;;0.00;0.00;;;25.80;99.90;;;;;;7378584;19;20143;-69
2023/07/06 13:11:58;;;;;;;0.00;0.00;;;25.70;99.90;;;;;;7378540;19;20164;-70
2023/07/06 13:14:33;;;;;;;0.00;0.00;;;25.70;99.90;;;;;;7377091;19;20176;-70
2023/07/06 13:17:08;;;;;;;0.00;0.00;;;25.90;99.90;;;;;;7379079;19;20875;-69
2023/07/06 13:19:36;;;;;;;0.00;0.00;;;26.00;99.90;;;;;;7377260;19;20223;-69
2023/07/06 13:22:06;;;;;;;0.00;0.00;;;26.10;99.90;;;;;;7379540;19;20149;-70
2023/07/06 13:24:38;;;;;;;0.00;0.00;;;26.10;99.90;;;;;;7376836;19;20180;-69
2023/07/06 13:27:15;;;;;;;0.00;0.00;;;26.10;99.90;;;;;;7379642;19;20157;-70
2023/07/06 13:29:44;;;;;;;0.00;0.00;;;26.00;99.90;;;;;;7377559;19;20148;-69
2023/07/06 13:32:17;;;;;;;0.00;0.00;;;26.00;99.90;;;;;;7379279;19;20224;-68
2023/07/06 13:34:49;;;;;;;0.00;0.00;;;26.00;99.90;;;;;;7375720;19;20184;-69